Time;durP1;ratioP1;P1;durP2;ratioP2;P2;SDS_P1;SDS_P2;PMS_P1;PMS_P2;Temp;Humidity;BMP_temperature;BMP_pressure;BME280_temperature;BME280_humidity;BME280_pressure;Samples;Min_cycle;Max_cycle;Signal;HPM_P1;HPM_P2
2024/03/01 00:00:40;;;;;;;8.60;3.70;;;5.80;99.90;;;;;;5035126;28;20449;-80
2024/03/01 00:03:07;;;;;;;7.83;4.53;;;5.80;99.90;;;;;;5034700;28;20954;-80
2024/03/01 00:05:34;;;;;;;15.53;6.07;;;5.70;99.90;;;;;;5034882;28;20532;-80
2024/03/01 00:08:02;;;;;;;11.37;5.00;;;5.70;99.90;;;;;;5034857;28;20463;-80
2024/03/01 00:10:28;;;;;;;5.37;4.57;;;5.70;99.90;;;;;;5037591;28;20451;-81
2024/03/01 00:12:55;;;;;;;10.27;4.90;;;5.60;99.90;;;;;;5050416;28;20446;-81
2024/03/01 00:15:23;;;;;;;8.67;3.80;;;5.70;99.90;;;;;;5050113;28;20515;-81
2024/03/01 00:17:50;;;;;;;16.30;4.97;;;5.70;99.90;;;;;;5035754;28;20474;-80
2024/03/01 00:20:17;;;;;;;12.40;6.00;;;5.80;99.90;;;;;;5034391;28;20454;-80
2024/03/01 00:22:43;;;;;;;11.23;4.83;;;5.80;99.90;;;;;;5034222;28;20974;-80
2024/03/01 00:25:10;;;;;;;8.00;4.93;;;5.80;99.90;;;;;;5037011;28;20454;-81
2024/03/01 00:27:37;;;;;;;10.33;4.07;;;5.90;99.90;;;;;;5035085;28;20466;-81
2024/03/01 00:30:04;;;;;;;16.60;4.97;;;5.90;99.90;;;;;;5034079;28;20439;-81
2024/03/01 00:32:33;;;;;;;10.43;5.23;;;5.90;99.90;;;;;;5034704;28;20457;-81
2024/03/01 00:34:59;;;;;;;7.30;3.43;;;5.80;99.90;;;;;;5034661;28;20439;-81
2024/03/01 00:37:26;;;;;;;10.10;3.93;;;5.80;99.90;;;;;;5034179;28;20967;-80
2024/03/01 00:39:53;;;;;;;15.40;5.13;;;5.80;99.90;;;;;;5034339;28;20439;-80
2024/03/01 00:42:19;;;;;;;10.07;5.40;;;5.70;99.90;;;;;;5034118;28;20861;-80
2024/03/01 00:44:46;;;;;;;11.33;3.87;;;6.40;99.90;;;;;;5034562;28;20451;-80
2024/03/01 00:47:13;;;;;;;10.93;4.60;;;5.70;99.90;;;;;;5034076;28;20486;-80
2024/03/01 00:49:41;;;;;;;11.27;4.40;;;5.60;99.90;;;;;;5034040;28;20935;-81
2024/03/01 00:52:08;;;;;;;14.73;5.67;;;5.60;99.90;;;;;;5034166;28;20450;-81
2024/03/01 00:54:35;;;;;;;6.83;4.20;;;5.60;99.90;;;;;;5034129;28;20508;-80
2024/03/01 00:57:02;;;;;;;9.10;5.17;;;5.60;99.90;;;;;;5034037;28;20467;-81
2024/03/01 00:59:28;;;;;;;6.77;3.87;;;5.60;99.90;;;;;;5033879;28;20951;-81
2024/03/01 01:01:55;;;;;;;11.97;5.40;;;5.60;99.90;;;;;;5034270;28;20451;-81
2024/03/01 01:04:22;;;;;;;7.63;3.67;;;5.50;99.90;;;;;;5033986;28;20442;-81
2024/03/01 01:06:50;;;;;;;8.87;3.60;;;5.50;99.90;;;;;;5033976;28;20954;-80
2024/03/01 01:09:16;;;;;;;14.17;4.90;;;5.40;99.90;;;;;;5033894;28;20526;-80
2024/03/01 01:11:43;;;;;;;9.37;3.90;;;5.50;99.90;;;;;;5033610;28;20438;-80
2024/03/01 01:14:10;;;;;;;12.27;4.97;;;5.40;99.90;;;;;;5034283;28;20451;-81
2024/03/01 01:16:36;;;;;;;15.53;5.10;;;5.50;99.90;;;;;;5033789;28;20459;-80
2024/03/01 01:19:03;;;;;;;7.33;3.83;;;5.60;99.90;;;;;;5033835;28;20459;-80
2024/03/01 01:21:31;;;;;;;9.80;5.47;;;5.60;99.90;;;;;;5033792;28;20486;-80
2024/03/01 01:24:00;;;;;;;5.20;3.50;;;5.70;99.90;;;;;;5033314;28;20536;-80
2024/03/01 01:26:26;;;;;;;6.70;3.97;;;5.70;99.90;;;;;;5033522;28;20491;-81
2024/03/01 01:28:53;;;;;;;7.83;3.50;;;5.70;99.90;;;;;;5033371;28;20961;-81
2024/03/01 01:31:20;;;;;;;6.60;4.80;;;5.70;99.90;;;;;;5033684;28;20457;-81
2024/03/01 01:33:47;;;;;;;17.57;7.40;;;5.70;99.90;;;;;;5033733;28;20439;-81
2024/03/01 01:36:13;;;;;;;6.97;2.97;;;5.80;99.90;;;;;;5033796;28;20454;-80
2024/03/01 01:38:40;;;;;;;11.20;4.57;;;5.80;99.90;;;;;;5033283;28;20958;-81
2024/03/01 01:41:08;;;;;;;8.00;4.23;;;5.80;99.90;;;;;;5036458;28;20446;-80
2024/03/01 01:43:37;;;;;;;7.90;4.70;;;5.80;99.90;;;;;;5037577;28;20447;-81
2024/03/01 01:46:06;;;;;;;15.27;5.50;;;5.80;99.90;;;;;;5037116;28;20517;-81
2024/03/01 01:48:33;;;;;;;9.20;4.83;;;5.80;99.90;;;;;;5037343;28;20435;-80
2024/03/01 01:51:01;;;;;;;10.53;3.40;;;5.80;99.90;;;;;;5037439;28;20453;-80
2024/03/01 01:53:28;;;;;;;7.47;4.13;;;5.80;99.90;;;;;;5037540;28;20447;-80
2024/03/01 01:55:55;;;;;;;8.67;3.80;;;5.80;99.90;;;;;;5037164;28;20496;-80
2024/03/01 01:58:24;;;;;;;9.70;4.00;;;5.80;99.90;;;;;;5037359;28;20466;-80
2024/03/01 02:00:51;;;;;;;3.73;3.27;;;5.80;99.90;;;;;;5037436;28;20446;-80
2024/03/01 02:03:17;;;;;;;7.80;3.50;;;5.80;99.90;;;;;;5036926;28;20943;-80
2024/03/01 02:05:45;;;;;;;7.37;3.03;;;5.90;99.90;;;;;;5037130;28;20848;-81
2024/03/01 02:08:12;;;;;;;12.03;5.43;;;5.80;99.90;;;;;;5036762;28;20473;-80
2024/03/01 02:10:38;;;;;;;16.80;6.70;;;5.90;99.90;;;;;;5036957;28;20439;-80
2024/03/01 02:13:05;;;;;;;8.90;3.50;;;5.80;99.90;;;;;;5036913;28;20461;-80
2024/03/01 02:15:33;;;;;;;11.47;6.33;;;5.80;99.90;;;;;;5037108;28;20453;-81
2024/03/01 02:18:00;;;;;;;5.03;2.97;;;5.70;99.90;;;;;;5037739;28;20846;-81
2024/03/01 02:20:29;;;;;;;11.00;4.63;;;5.70;99.90;;;;;;5038926;28;20447;-81
2024/03/01 02:23:00;;;;;;;12.17;5.43;;;5.60;99.90;;;;;;5036926;28;20860;-81
2024/03/01 02:25:28;;;;;;;9.97;3.87;;;5.60;99.90;;;;;;5037231;28;20446;-80
2024/03/01 02:27:55;;;;;;;5.87;3.83;;;5.60;99.90;;;;;;5036678;28;20492;-80
2024/03/01 02:30:22;;;;;;;8.37;3.13;;;5.50;99.90;;;;;;5044518;28;20442;-81
2024/03/01 02:32:49;;;;;;;12.07;4.07;;;5.50;99.90;;;;;;5055975;28;20959;-80
2024/03/01 02:35:16;;;;;;;9.20;4.97;;;6.10;99.90;;;;;;5053316;28;20447;-81
2024/03/01 02:37:43;;;;;;;9.80;4.83;;;5.60;99.90;;;;;;5041895;28;20459;-82
2024/03/01 02:40:11;;;;;;;8.07;3.63;;;5.60;99.90;;;;;;5036821;28;20445;-80
2024/03/01 02:42:39;;;;;;;10.07;4.90;;;5.60;99.90;;;;;;5036665;28;20442;-80
2024/03/01 02:45:07;;;;;;;7.77;3.83;;;5.70;99.90;;;;;;5036333;28;20516;-81
2024/03/01 02:47:34;;;;;;;12.50;5.00;;;5.70;99.90;;;;;;5036203;28;20987;-80
2024/03/01 02:50:00;;;;;;;11.10;4.10;;;5.80;99.90;;;;;;5036473;28;20446;-80
2024/03/01 02:52:27;;;;;;;11.73;5.80;;;5.80;99.90;;;;;;5035309;28;20819;-80
2024/03/01 02:54:54;;;;;;;5.00;3.57;;;5.80;99.90;;;;;;5036260;28;20447;-80
2024/03/01 02:57:22;;;;;;;7.63;4.20;;;5.80;99.90;;;;;;5036328;28;20828;-80
2024/03/01 02:59:50;;;;;;;11.30;4.00;;;5.80;99.90;;;;;;5036232;28;20825;-81
2024/03/01 03:02:17;;;;;;;12.33;5.27;;;5.80;99.90;;;;;;5036128;28;20453;-81
2024/03/01 03:04:43;;;;;;;7.80;3.33;;;5.80;99.90;;;;;;5035804;28;20958;-80
2024/03/01 03:07:11;;;;;;;10.10;4.13;;;5.80;99.90;;;;;;5035751;28;20487;-80
2024/03/01 03:09:41;;;;;;;8.80;4.70;;;5.70;99.90;;;;;;5035971;28;20443;-80
2024/03/01 03:12:08;;;;;;;9.67;4.80;;;5.70;99.90;;;;;;5035789;28;20412;-80
2024/03/01 03:14:34;;;;;;;8.23;4.13;;;5.80;99.90;;;;;;5035713;28;20454;-80
2024/03/01 03:17:02;;;;;;;6.83;2.63;;;5.80;99.90;;;;;;5035965;28;20467;-81
2024/03/01 03:19:29;;;;;;;7.40;3.60;;;5.70;99.90;;;;;;5036003;28;20446;-80
2024/03/01 03:21:56;;;;;;;6.27;3.43;;;5.60;99.90;;;;;;5035907;28;20481;-81
2024/03/01 03:24:23;;;;;;;9.17;4.33;;;5.60;99.90;;;;;;5035415;28;20483;-80
2024/03/01 03:26:50;;;;;;;12.40;4.03;;;5.60;99.90;;;;;;5035644;28;20498;-80
2024/03/01 03:29:17;;;;;;;9.60;5.67;;;5.70;99.90;;;;;;5035685;28;20461;-80
2024/03/01 03:31:43;;;;;;;13.43;4.17;;;5.70;99.90;;;;;;5035628;28;20522;-80
2024/03/01 03:34:11;;;;;;;17.90;4.57;;;5.80;99.90;;;;;;5035346;28;20968;-80
2024/03/01 03:36:38;;;;;;;11.20;5.40;;;5.80;99.90;;;;;;5035477;28;20536;-80
2024/03/01 03:39:06;;;;;;;11.17;4.73;;;5.70;99.90;;;;;;5036064;28;20451;-80
2024/03/01 03:41:33;;;;;;;10.53;3.77;;;5.80;99.90;;;;;;5035402;28;20459;-80
2024/03/01 03:44:00;;;;;;;9.93;3.77;;;5.80;99.90;;;;;;5035251;28;20450;-80
2024/03/01 03:46:27;;;;;;;9.13;4.80;;;5.80;99.90;;;;;;5035209;28;20548;-80
2024/03/01 03:48:53;;;;;;;12.73;4.97;;;5.90;99.90;;;;;;5035399;28;20438;-81
2024/03/01 03:51:26;;;;;;;8.87;3.60;;;5.90;99.90;;;;;;5035130;28;20450;-81
2024/03/01 03:53:52;;;;;;;12.47;5.07;;;5.90;99.90;;;;;;5034884;28;20912;-81
2024/03/01 03:56:19;;;;;;;11.80;4.23;;;5.90;99.90;;;;;;5034968;28;20450;-80
2024/03/01 03:58:48;;;;;;;5.50;3.87;;;5.90;99.90;;;;;;5035021;28;20447;-80
2024/03/01 04:01:15;;;;;;;6.70;3.83;;;6.00;99.90;;;;;;5034788;28;20493;-80
2024/03/01 04:03:42;;;;;;;7.20;3.90;;;6.00;99.90;;;;;;5034844;28;20450;-80
2024/03/01 04:06:09;;;;;;;15.20;6.53;;;6.00;99.90;;;;;;5034731;28;20450;-80
2024/03/01 04:08:39;;;;;;;9.73;3.93;;;6.00;99.90;;;;;;5034990;28;20454;-80
2024/03/01 04:11:06;;;;;;;12.17;5.50;;;6.00;99.90;;;;;;5034979;28;20454;-80
2024/03/01 04:13:33;;;;;;;14.70;3.77;;;6.00;99.90;;;;;;5034770;28;20450;-80
2024/03/01 04:15:59;;;;;;;5.97;3.47;;;6.10;99.90;;;;;;5045609;28;20443;-81
2024/03/01 04:18:27;;;;;;;8.07;3.17;;;6.10;99.90;;;;;;5055260;28;20471;-81
2024/03/01 04:20:55;;;;;;;5.63;3.43;;;6.10;99.90;;;;;;5053490;28;20473;-81
2024/03/01 04:23:22;;;;;;;7.73;5.93;;;6.20;99.90;;;;;;5050160;28;20474;-81
2024/03/01 04:25:51;;;;;;;14.17;6.23;;;6.20;99.90;;;;;;5050937;28;20446;-81
2024/03/01 04:28:18;;;;;;;12.97;5.70;;;6.20;99.90;;;;;;5050464;28;20482;-81
2024/03/01 04:30:45;;;;;;;15.77;4.57;;;6.20;99.90;;;;;;5042138;28;20458;-81
2024/03/01 04:33:11;;;;;;;12.43;6.43;;;6.20;99.90;;;;;;5036449;28;20482;-81
2024/03/01 04:35:39;;;;;;;11.93;4.00;;;6.20;99.90;;;;;;5035247;28;20455;-81
2024/03/01 04:38:06;;;;;;;8.90;4.73;;;6.10;99.90;;;;;;5034605;28;20499;-80
2024/03/01 04:40:33;;;;;;;10.20;5.60;;;6.10;99.90;;;;;;5035259;28;20450;-80
2024/03/01 04:43:01;;;;;;;7.10;4.10;;;6.10;99.90;;;;;;5036018;28;20447;-80
2024/03/01 04:45:28;;;;;;;6.07;4.80;;;6.10;99.90;;;;;;5035057;28;20450;-80
2024/03/01 04:47:55;;;;;;;12.13;5.20;;;6.10;99.90;;;;;;5035156;28;20509;-81
2024/03/01 04:50:21;;;;;;;13.93;4.60;;;6.10;99.90;;;;;;5035238;28;20458;-81
2024/03/01 04:52:48;;;;;;;17.17;6.63;;;6.10;99.90;;;;;;5034989;28;20446;-81
2024/03/01 04:55:15;;;;;;;11.23;5.53;;;6.10;99.90;;;;;;5034863;28;20461;-80
2024/03/01 04:57:42;;;;;;;6.83;3.57;;;6.10;99.90;;;;;;5034255;28;20465;-80
2024/03/01 05:00:12;;;;;;;6.77;3.13;;;6.10;99.90;;;;;;5034288;28;20450;-80
2024/03/01 05:02:40;;;;;;;13.70;4.70;;;6.20;99.90;;;;;;5035798;28;20493;-81
2024/03/01 05:05:08;;;;;;;14.10;5.40;;;6.20;99.90;;;;;;5037928;28;20451;-81
2024/03/01 05:07:34;;;;;;;14.50;6.80;;;6.20;99.90;;;;;;5037719;28;20490;-80
2024/03/01 05:10:08;;;;;;;6.97;3.93;;;6.30;99.90;;;;;;5034265;28;20430;-80
2024/03/01 05:12:36;;;;;;;6.70;3.30;;;6.20;99.90;;;;;;5034234;28;20468;-80
2024/03/01 05:15:04;;;;;;;5.60;3.90;;;6.20;99.90;;;;;;5033523;28;20450;-80
2024/03/01 05:17:32;;;;;;;11.90;5.87;;;6.20;99.90;;;;;;5033699;28;20517;-80
2024/03/01 05:19:59;;;;;;;13.17;6.17;;;6.20;99.90;;;;;;5033984;28;20454;-80
2024/03/01 05:22:25;;;;;;;10.97;4.50;;;6.20;99.90;;;;;;5033862;28;20442;-80
2024/03/01 05:24:52;;;;;;;11.87;4.90;;;6.20;99.90;;;;;;5034075;28;21002;-80
2024/03/01 05:27:19;;;;;;;28.10;5.77;;;6.10;99.90;;;;;;5033878;28;20494;-80
2024/03/01 05:29:46;;;;;;;5.70;4.13;;;6.10;99.90;;;;;;5033828;28;20442;-80
2024/03/01 05:32:12;;;;;;;3.07;2.60;;;6.10;99.90;;;;;;5033782;28;20473;-80
2024/03/01 05:34:41;;;;;;;16.20;4.47;;;6.20;99.90;;;;;;5033903;28;20473;-80
2024/03/01 05:37:08;;;;;;;17.73;6.43;;;6.20;99.90;;;;;;5033721;28;20458;-80
2024/03/01 05:39:34;;;;;;;12.00;5.80;;;6.10;99.90;;;;;;5034366;28;20447;-80
2024/03/01 05:42:01;;;;;;;19.00;6.90;;;6.20;99.90;;;;;;5033528;28;20450;-80
2024/03/01 05:44:28;;;;;;;12.27;5.63;;;6.20;99.90;;;;;;5033277;28;20443;-81
2024/03/01 05:46:54;;;;;;;16.50;5.53;;;6.20;99.90;;;;;;5033265;28;20463;-80
2024/03/01 05:49:21;;;;;;;6.80;4.00;;;6.30;99.90;;;;;;5033177;28;20975;-80
2024/03/01 05:51:49;;;;;;;9.50;4.70;;;6.20;99.90;;;;;;5033489;28;20446;-80
2024/03/01 05:54:16;;;;;;;13.30;5.30;;;6.20;99.90;;;;;;5033118;28;20824;-80
2024/03/01 05:56:45;;;;;;;13.30;4.27;;;6.20;99.90;;;;;;5033370;28;20455;-80
2024/03/01 05:59:12;;;;;;;10.10;3.57;;;6.10;99.90;;;;;;5036111;28;20826;-80
2024/03/01 06:01:39;;;;;;;7.50;3.50;;;6.10;99.90;;;;;;5051604;28;20477;-81
2024/03/01 06:04:10;;;;;;;10.60;4.13;;;6.10;99.90;;;;;;5049232;28;20908;-80
2024/03/01 06:06:37;;;;;;;11.60;4.73;;;6.10;99.90;;;;;;5035541;28;20520;-81
2024/03/01 06:09:05;;;;;;;7.50;4.20;;;6.10;99.90;;;;;;5033032;28;20478;-80
2024/03/01 06:11:32;;;;;;;12.20;4.63;;;6.10;99.90;;;;;;5033092;28;20457;-81
2024/03/01 06:13:59;;;;;;;9.57;5.13;;;6.10;99.90;;;;;;5033255;28;20480;-81
2024/03/01 06:16:25;;;;;;;15.53;3.60;;;6.10;99.90;;;;;;5033091;28;21043;-81
2024/03/01 06:18:52;;;;;;;9.83;3.73;;;6.10;99.90;;;;;;5032927;28;20488;-80
2024/03/01 06:21:22;;;;;;;6.40;2.83;;;6.10;99.90;;;;;;5033912;28;20450;-81
2024/03/01 06:23:49;;;;;;;10.77;4.90;;;6.10;99.90;;;;;;5034452;28;20489;-81
2024/03/01 06:26:17;;;;;;;10.90;4.80;;;6.10;99.90;;;;;;5034312;28;20449;-80
2024/03/01 06:28:44;;;;;;;7.63;4.17;;;6.20;99.90;;;;;;5037042;28;21003;-80
2024/03/01 06:31:11;;;;;;;12.50;4.30;;;6.20;99.90;;;;;;5037991;28;20446;-80
2024/03/01 06:33:40;;;;;;;14.80;4.93;;;6.20;99.90;;;;;;5037093;28;20442;-80
2024/03/01 06:36:07;;;;;;;10.83;4.73;;;6.20;99.90;;;;;;5036717;28;20446;-80
2024/03/01 06:38:35;;;;;;;11.53;2.83;;;6.20;99.90;;;;;;5036599;28;20442;-80
2024/03/01 06:41:04;;;;;;;17.67;5.30;;;6.20;99.90;;;;;;5036674;28;20869;-80
2024/03/01 06:43:32;;;;;;;12.33;4.90;;;6.20;99.90;;;;;;5036630;28;20443;-80
2024/03/01 06:46:01;;;;;;;9.97;4.10;;;6.30;99.90;;;;;;5036373;28;20447;-80
2024/03/01 06:48:27;;;;;;;9.53;4.10;;;6.30;99.90;;;;;;5036160;28;20482;-80
2024/03/01 06:50:54;;;;;;;7.40;3.70;;;6.40;99.90;;;;;;5036158;28;20439;-80
2024/03/01 06:53:21;;;;;;;7.03;3.80;;;6.40;99.90;;;;;;5036333;28;20446;-81
2024/03/01 06:55:48;;;;;;;4.87;3.10;;;6.30;99.90;;;;;;5036059;28;20979;-80
2024/03/01 06:58:14;;;;;;;23.23;7.33;;;6.30;99.90;;;;;;5036096;28;20486;-80
2024/03/01 07:00:46;;;;;;;7.07;4.53;;;6.30;99.90;;;;;;5036208;28;20455;-80
2024/03/01 07:03:13;;;;;;;5.47;3.87;;;6.40;99.90;;;;;;5035926;28;20431;-80
2024/03/01 07:05:40;;;;;;;6.60;2.87;;;6.40;99.90;;;;;;5036062;28;20470;-80
2024/03/01 07:08:07;;;;;;;7.87;3.97;;;6.50;99.90;;;;;;5036175;28;20490;-80
2024/03/01 07:10:34;;;;;;;6.73;4.17;;;6.60;99.90;;;;;;5036113;28;20454;-80
2024/03/01 07:13:01;;;;;;;6.00;3.63;;;6.60;99.90;;;;;;5036107;28;20955;-81
2024/03/01 07:15:29;;;;;;;9.77;4.33;;;6.60;99.90;;;;;;5036435;28;20451;-81
2024/03/01 07:17:57;;;;;;;10.00;3.73;;;6.60;99.90;;;;;;5035607;28;21034;-81
2024/03/01 07:20:24;;;;;;;11.43;3.40;;;6.60;99.90;;;;;;5036446;28;20455;-81
2024/03/01 07:22:50;;;;;;;5.53;3.27;;;6.70;99.90;;;;;;5036520;28;20485;-82
2024/03/01 07:25:17;;;;;;;10.87;3.80;;;6.80;99.90;;;;;;5035904;28;20462;-81
2024/03/01 07:27:44;;;;;;;7.50;3.20;;;6.90;99.90;;;;;;5035617;28;20517;-81
2024/03/01 07:30:12;;;;;;;7.20;3.47;;;6.90;99.90;;;;;;5035561;28;20849;-80
2024/03/01 07:32:39;;;;;;;7.37;4.00;;;7.00;99.90;;;;;;5036156;28;20451;-81
2024/03/01 07:35:08;;;;;;;6.60;4.00;;;7.30;99.90;;;;;;5035792;28;20451;-81
2024/03/01 07:37:34;;;;;;;8.13;3.47;;;7.10;99.90;;;;;;5035123;28;20459;-80
2024/03/01 07:40:01;;;;;;;7.03;3.40;;;7.10;99.90;;;;;;5035708;28;20442;-81
2024/03/01 07:42:28;;;;;;;10.90;3.67;;;7.20;99.90;;;;;;5035581;28;20493;-80
2024/03/01 07:44:55;;;;;;;9.63;3.47;;;7.30;99.90;;;;;;5043037;28;20927;-81
2024/03/01 07:47:24;;;;;;;11.27;4.50;;;7.30;99.90;;;;;;5047341;28;20463;-82
2024/03/01 07:49:51;;;;;;;6.10;2.43;;;7.40;99.90;;;;;;5043336;28;20486;-81
2024/03/01 07:52:19;;;;;;;11.63;4.23;;;7.40;99.90;;;;;;5037855;28;20450;-81
2024/03/01 07:54:46;;;;;;;6.37;3.20;;;7.50;99.90;;;;;;5037420;28;20455;-82
2024/03/01 07:57:12;;;;;;;8.13;4.07;;;7.40;99.90;;;;;;5038893;28;20474;-82
2024/03/01 07:59:40;;;;;;;7.00;3.67;;;7.50;99.90;;;;;;5039451;28;20455;-82
2024/03/01 08:02:10;;;;;;;7.63;3.33;;;7.50;99.90;;;;;;5040644;28;20823;-82
2024/03/01 08:04:37;;;;;;;10.30;4.30;;;7.60;99.90;;;;;;5039206;28;20443;-82
2024/03/01 08:07:06;;;;;;;11.50;4.97;;;7.70;99.90;;;;;;5038809;28;20892;-82
2024/03/01 08:09:40;;;;;;;5.17;2.80;;;7.90;99.90;;;;;;5038698;28;20486;-83
2024/03/01 08:12:10;;;;;;;8.20;4.77;;;8.10;99.90;;;;;;5038484;28;20490;-83
2024/03/01 08:14:37;;;;;;;6.97;3.00;;;8.20;99.90;;;;;;5037957;28;20431;-82
2024/03/01 08:17:06;;;;;;;6.67;3.50;;;8.40;99.90;;;;;;5037553;28;20469;-82
2024/03/01 08:19:35;;;;;;;7.77;3.97;;;8.40;99.90;;;;;;5037775;28;20450;-82
2024/03/01 08:22:09;;;;;;;4.43;2.90;;;8.40;99.90;;;;;;5037933;28;20442;-82
2024/03/01 08:24:37;;;;;;;12.57;4.03;;;8.40;99.90;;;;;;5036800;28;20474;-82
2024/03/01 08:27:06;;;;;;;10.20;3.77;;;8.40;99.90;;;;;;5037008;28;20473;-82
2024/03/01 08:29:33;;;;;;;7.77;3.93;;;8.50;99.90;;;;;;5037248;28;20590;-83
2024/03/01 08:32:00;;;;;;;8.40;4.27;;;8.60;99.90;;;;;;5037001;28;20451;-83
2024/03/01 08:34:34;;;;;;;5.43;2.63;;;8.60;99.90;;;;;;5037234;28;20987;-83
2024/03/01 08:37:01;;;;;;;13.10;3.53;;;8.60;99.90;;;;;;5037484;28;20455;-83
2024/03/01 08:39:27;;;;;;;7.03;2.70;;;8.70;99.90;;;;;;5036752;28;20434;-81
2024/03/01 08:41:59;;;;;;;7.77;3.37;;;8.70;99.90;;;;;;5036740;28;20444;-83
2024/03/01 08:44:42;;;;;;;13.10;4.23;;;8.60;99.90;;;;;;5036418;28;20407;-82
2024/03/01 08:47:17;;;;;;;6.83;2.23;;;8.70;99.90;;;;;;5037489;28;20454;-83
2024/03/01 08:50:25;;;;;;;6.57;2.57;;;8.70;99.90;;;;;;5039715;28;20466;-81
2024/03/01 08:52:54;;;;;;;3.83;2.90;;;8.70;99.90;;;;;;5038188;28;20423;-81
2024/03/01 08:55:41;;;;;;;11.87;4.27;;;8.80;99.90;;;;;;5038906;28;20470;-83
2024/03/01 08:58:19;;;;;;;6.47;2.27;;;8.80;99.90;;;;;;5039516;28;20561;-82
2024/03/01 09:00:49;;;;;;;2.53;2.30;;;8.80;99.90;;;;;;5040536;28;20903;-81
2024/03/01 09:03:20;;;;;;;3.97;1.80;;;8.90;99.90;;;;;;5039851;28;20826;-81
2024/03/01 09:05:47;;;;;;;8.63;3.27;;;8.80;99.90;;;;;;5039200;28;20488;-81
2024/03/01 09:08:19;;;;;;;3.83;1.93;;;8.80;99.90;;;;;;5038650;28;20933;-82
2024/03/01 09:10:46;;;;;;;4.00;1.13;;;8.70;99.90;;;;;;5038219;28;20435;-84
2024/03/01 09:13:16;;;;;;;2.50;1.40;;;8.70;99.90;;;;;;5037152;28;20450;-81
2024/03/01 09:15:45;;;;;;;1.47;1.03;;;8.60;99.90;;;;;;5037962;28;20943;-82
2024/03/01 09:18:43;;;;;;;3.80;1.30;;;8.60;99.90;;;;;;5038540;28;20474;-82
2024/03/01 09:21:43;;;;;;;3.53;1.50;;;8.60;99.90;;;;;;5039119;28;20446;-82
2024/03/01 09:24:16;;;;;;;2.40;1.53;;;8.70;99.90;;;;;;4996939;28;20488;-82
2024/03/01 09:26:42;;;;;;;1.90;1.53;;;8.70;99.90;;;;;;4996954;28;20527;-82
2024/03/01 09:29:32;;;;;;;1.30;1.23;;;8.70;99.90;;;;;;5028925;28;20463;-79
2024/03/01 09:31:59;;;;;;;3.93;1.40;;;8.70;99.90;;;;;;5057155;28;20483;-81
2024/03/01 09:34:31;;;;;;;5.33;1.30;;;8.60;99.90;;;;;;5049441;28;20455;-82
2024/03/01 09:36:58;;;;;;;1.93;0.80;;;8.40;99.90;;;;;;5038819;28;20466;-81
2024/03/01 09:39:25;;;;;;;5.80;2.10;;;8.40;99.90;;;;;;5038917;28;20438;-81
2024/03/01 09:42:16;;;;;;;4.73;2.27;;;8.40;99.90;;;;;;5038498;28;20434;-81
2024/03/01 09:44:52;;;;;;;3.43;1.77;;;8.30;99.90;;;;;;5037334;28;20427;-79
2024/03/01 09:47:34;;;;;;;3.03;1.40;;;8.40;99.90;;;;;;5037672;28;20450;-81
2024/03/01 09:50:15;;;;;;;2.40;1.33;;;8.30;99.90;;;;;;5037052;28;21010;-80
2024/03/01 09:52:51;;;;;;;2.30;1.57;;;8.40;99.90;;;;;;5037372;28;20431;-81
2024/03/01 09:55:32;;;;;;;6.80;2.73;;;8.30;99.90;;;;;;5038565;28;20920;-81
2024/03/01 09:58:06;;;;;;;6.40;2.43;;;8.20;99.90;;;;;;5037396;28;20466;-81
2024/03/01 10:00:40;;;;;;;4.50;1.73;;;8.30;99.90;;;;;;5039451;28;20430;-81
2024/03/01 10:03:16;;;;;;;7.50;1.83;;;8.30;99.90;;;;;;5043777;28;20434;-81
2024/03/01 10:06:12;;;;;;;3.83;1.57;;;8.30;99.90;;;;;;5043628;28;20427;-81
2024/03/01 10:08:50;;;;;;;7.07;2.40;;;8.20;99.90;;;;;;5043499;28;20971;-80
2024/03/01 10:11:27;;;;;;;6.07;2.40;;;8.20;99.90;;;;;;5042967;28;20442;-80
2024/03/01 10:14:01;;;;;;;2.90;1.57;;;8.20;99.90;;;;;;5043129;28;20433;-80
2024/03/01 10:16:45;;;;;;;2.93;1.97;;;8.10;99.90;;;;;;5044451;28;20500;-80
2024/03/01 10:19:25;;;;;;;5.57;3.13;;;8.20;99.90;;;;;;5045639;28;20426;-82
2024/03/01 10:22:05;;;;;;;2.83;2.30;;;8.20;99.90;;;;;;5043454;28;20415;-81
2024/03/01 10:24:52;;;;;;;5.60;2.00;;;8.20;99.90;;;;;;5043071;28;20486;-80
2024/03/01 10:27:27;;;;;;;3.43;2.43;;;8.40;99.90;;;;;;5042075;28;20466;-81
2024/03/01 10:30:03;;;;;;;6.73;3.27;;;8.40;99.90;;;;;;5042218;28;20966;-80
2024/03/01 10:32:45;;;;;;;3.80;2.53;;;8.50;99.90;;;;;;5042674;28;20827;-84
2024/03/01 10:35:20;;;;;;;11.27;3.77;;;8.50;99.90;;;;;;5042482;28;20431;-80
2024/03/01 10:38:02;;;;;;;4.17;2.10;;;8.60;99.90;;;;;;5041481;28;20465;-80
2024/03/01 10:40:33;;;;;;;5.83;2.83;;;8.70;99.90;;;;;;5042223;28;20480;-80
2024/03/01 10:43:09;;;;;;;4.80;2.20;;;8.80;99.90;;;;;;5041930;28;20834;-80
2024/03/01 10:45:40;;;;;;;3.80;2.97;;;8.70;99.90;;;;;;5041945;28;20431;-80
2024/03/01 10:48:08;;;;;;;4.03;2.50;;;8.90;99.90;;;;;;5042069;28;20462;-80
2024/03/01 10:50:43;;;;;;;7.80;3.10;;;9.10;99.90;;;;;;5041858;28;20454;-80
2024/03/01 10:53:16;;;;;;;5.70;1.80;;;9.40;99.90;;;;;;5040872;28;20434;-81
2024/03/01 10:55:50;;;;;;;6.00;2.80;;;9.70;99.90;;;;;;5041274;28;20439;-81
2024/03/01 10:58:21;;;;;;;4.37;2.77;;;9.60;99.90;;;;;;5041222;28;20545;-81
2024/03/01 11:00:55;;;;;;;3.63;1.87;;;9.70;99.90;;;;;;5030621;28;20430;-81
2024/03/01 11:03:27;;;;;;;3.93;2.17;;;9.90;99.90;;;;;;5020302;28;20420;-81
2024/03/01 11:06:11;;;;;;;4.30;3.07;;;10.00;99.90;;;;;;5020140;28;20454;-81
2024/03/01 11:08:47;;;;;;;10.60;2.77;;;9.90;99.90;;;;;;5019958;28;20976;-81
2024/03/01 11:11:19;;;;;;;5.27;2.53;;;10.10;99.90;;;;;;5019880;28;20901;-81
2024/03/01 11:13:48;;;;;;;6.00;2.30;;;10.40;99.90;;;;;;5019514;28;20436;-82
2024/03/01 11:16:19;;;;;;;4.60;2.47;;;10.40;99.90;;;;;;5022342;28;20459;-81
2024/03/01 11:18:54;;;;;;;8.10;3.63;;;10.50;99.90;;;;;;5040000;28;20431;-81
2024/03/01 11:21:25;;;;;;;4.20;2.80;;;10.50;99.90;;;;;;5038956;28;20431;-82
2024/03/01 11:23:56;;;;;;;7.37;2.37;;;10.50;99.90;;;;;;5023975;28;20487;-81
2024/03/01 11:26:28;;;;;;;6.00;3.00;;;10.40;99.90;;;;;;5021140;28;20435;-81
2024/03/01 11:28:58;;;;;;;3.27;1.97;;;10.60;99.90;;;;;;5023246;28;20490;-82
2024/03/01 11:31:28;;;;;;;3.37;1.80;;;10.70;99.90;;;;;;5022836;28;20438;-82
2024/03/01 11:34:06;;;;;;;4.10;1.87;;;10.80;99.90;;;;;;5021183;28;20440;-82
2024/03/01 11:36:41;;;;;;;4.03;1.77;;;11.00;99.90;;;;;;5021053;28;20479;-82
2024/03/01 11:39:23;;;;;;;2.90;2.20;;;11.30;99.90;;;;;;5021168;28;20424;-82
2024/03/01 11:41:53;;;;;;;2.03;1.50;;;11.40;99.90;;;;;;5020573;28;20443;-82
2024/03/01 11:44:30;;;;;;;4.10;2.43;;;11.60;99.90;;;;;;5020223;28;20443;-82
2024/03/01 11:47:15;;;;;;;3.90;2.10;;;11.80;99.90;;;;;;5020126;28;20935;-81
2024/03/01 11:50:03;;;;;;;6.23;1.73;;;11.70;99.90;;;;;;5021263;28;20459;-82
2024/03/01 11:52:58;;;;;;;4.03;1.50;;;11.70;99.90;;;;;;5019203;28;20975;-82
2024/03/01 11:55:38;;;;;;;3.57;2.00;;;11.60;99.90;;;;;;5019569;28;20940;-82
2024/03/01 11:58:17;;;;;;;1.67;1.50;;;11.50;99.90;;;;;;5019782;28;20462;-81
2024/03/01 12:00:58;;;;;;;7.37;1.90;;;11.50;99.90;;;;;;5019567;28;20439;-81
2024/03/01 12:04:11;;;;;;;2.10;1.30;;;11.50;99.90;;;;;;5018752;28;20428;-82
2024/03/01 12:06:58;;;;;;;2.50;1.57;;;11.40;99.90;;;;;;5018629;28;20980;-81
2024/03/01 12:09:34;;;;;;;2.20;1.53;;;11.40;99.90;;;;;;5018674;28;20467;-82
2024/03/01 12:12:15;;;;;;;2.77;1.40;;;11.30;99.90;;;;;;5018726;28;20767;-81
2024/03/01 12:14:52;;;;;;;2.67;1.93;;;11.30;99.90;;;;;;5018747;28;20877;-82
2024/03/01 12:17:24;;;;;;;2.60;1.37;;;11.20;99.90;;;;;;5017808;28;20478;-81
2024/03/01 12:19:56;;;;;;;1.70;1.33;;;11.20;99.90;;;;;;5018443;28;20428;-81
2024/03/01 12:22:43;;;;;;;2.70;1.47;;;11.00;99.90;;;;;;5018707;28;20432;-81
2024/03/01 12:25:10;;;;;;;2.10;1.10;;;11.00;99.90;;;;;;5019077;28;20424;-82
2024/03/01 12:27:45;;;;;;;1.77;1.50;;;11.00;99.90;;;;;;5019213;28;20526;-82
2024/03/01 12:30:23;;;;;;;2.10;1.57;;;11.10;99.90;;;;;;5019364;28;20470;-81
2024/03/01 12:33:05;;;;;;;2.20;1.20;;;11.10;99.90;;;;;;5018746;28;20458;-81
2024/03/01 12:35:38;;;;;;;2.03;1.30;;;11.10;99.90;;;;;;5018160;28;20913;-82
2024/03/01 12:38:14;;;;;;;2.07;1.20;;;11.10;99.90;;;;;;5019333;28;20490;-82
2024/03/01 12:40:56;;;;;;;2.10;1.23;;;11.00;99.90;;;;;;5018062;28;20428;-82
2024/03/01 12:43:46;;;;;;;3.07;1.80;;;10.90;99.90;;;;;;5018231;28;20435;-81
2024/03/01 12:46:34;;;;;;;2.30;1.43;;;10.80;99.90;;;;;;5016750;28;20794;-82
2024/03/01 12:49:10;;;;;;;2.70;1.40;;;10.90;99.90;;;;;;5016978;28;20444;-81
2024/03/01 12:51:49;;;;;;;2.40;1.60;;;11.00;99.90;;;;;;5016855;28;20427;-81
2024/03/01 12:54:21;;;;;;;3.13;1.63;;;11.00;99.90;;;;;;5017587;28;20424;-81
2024/03/01 12:56:53;;;;;;;1.33;1.23;;;11.00;99.90;;;;;;5016647;28;20541;-81
2024/03/01 12:59:32;;;;;;;3.00;1.30;;;11.00;99.90;;;;;;5016261;28;20443;-79
2024/03/01 13:02:29;;;;;;;4.47;2.37;;;11.10;99.90;;;;;;5015733;28;20424;-81
2024/03/01 13:05:13;;;;;;;3.43;2.43;;;11.00;99.90;;;;;;5017849;28;20450;-82
2024/03/01 13:07:41;;;;;;;3.03;1.43;;;10.90;99.90;;;;;;5039002;28;20472;-82
2024/03/01 13:10:13;;;;;;;2.53;1.47;;;10.80;99.90;;;;;;5039141;28;20487;-81